createdAt,value
2017-03-25T00:01:08.408Z,0
2017-03-25T00:02:18.630Z,0
2017-03-25T00:03:28.892Z,0
2017-03-25T00:04:39.169Z,0
2017-03-25T00:05:49.118Z,0
2017-03-25T00:06:59.073Z,0
2017-03-25T00:08:09.329Z,0
2017-03-25T00:09:19.599Z,0
2017-03-25T00:10:29.549Z,0
2017-03-25T00:11:39.826Z,0
2017-03-25T00:12:50.100Z,0
2017-03-25T00:14:00.318Z,0
2017-03-25T00:15:10.585Z,0
2017-03-25T00:16:20.855Z,0
2017-03-25T00:17:30.829Z,0
2017-03-25T00:18:41.098Z,0
2017-03-25T00:20:28.440Z,0
2017-03-25T00:21:38.706Z,0
2017-03-25T00:22:48.043Z,0
2017-03-25T00:23:58.030Z,0
2017-03-25T00:25:07.987Z,0
2017-03-25T00:26:18.252Z,0
2017-03-25T00:27:28.207Z,0
2017-03-25T00:28:38.489Z,0
2017-03-25T00:29:48.450Z,0
2017-03-25T00:30:58.420Z,0
2017-03-25T00:32:08.318Z,0
2017-03-25T00:33:17.965Z,0
2017-03-25T00:34:27.919Z,0
2017-03-25T00:35:37.885Z,0
2017-03-25T00:36:47.526Z,0
2017-03-25T00:37:57.738Z,0
2017-03-25T00:39:08.006Z,0
2017-03-25T00:40:17.649Z,0
2017-03-25T00:41:27.608Z,0
2017-03-25T00:42:37.262Z,0
2017-03-25T00:43:47.781Z,0
2017-03-25T00:44:58.055Z,0
2017-03-25T00:46:08.006Z,0
2017-03-25T00:47:17.350Z,0
2017-03-25T00:48:27.315Z,0
2017-03-25T00:49:37.835Z,0
2017-03-25T00:50:47.793Z,0
2017-03-25T00:51:57.751Z,0
2017-03-25T00:53:07.401Z,0
2017-03-25T00:54:17.354Z,0
2017-03-25T00:55:27.564Z,0
2017-03-25T00:56:37.861Z,0
2017-03-25T00:57:47.815Z,0
2017-03-25T00:58:57.765Z,0
2017-03-25T01:00:08.055Z,0
2017-03-25T01:01:18.269Z,0
2017-03-25T01:02:28.540Z,0
2017-03-25T01:03:38.510Z,0
2017-03-25T01:04:48.824Z,0
2017-03-25T01:05:58.777Z,0
2017-03-25T01:07:08.989Z,0
2017-03-25T01:08:19.259Z,0
2017-03-25T01:09:29.531Z,0
2017-03-25T01:10:39.484Z,0
2017-03-25T01:11:49.438Z,0
2017-03-25T01:12:59.642Z,0
2017-03-25T01:14:09.972Z,0
2017-03-25T01:15:19.925Z,0
2017-03-25T01:16:29.887Z,0
2017-03-25T01:17:39.529Z,0
2017-03-25T01:18:50.101Z,0
2017-03-25T01:20:00.379Z,0
2017-03-25T01:21:10.338Z,0
2017-03-25T01:22:20.290Z,0
2017-03-25T01:23:30.557Z,0
2017-03-25T01:24:40.775Z,0
2017-03-25T01:25:50.730Z,0
2017-03-25T01:27:00.998Z,0
2017-03-25T01:28:10.961Z,0
2017-03-25T01:29:20.912Z,0
2017-03-25T01:30:31.445Z,0
2017-03-25T01:31:41.411Z,0
2017-03-25T01:32:51.364Z,0
2017-03-25T01:34:01.312Z,0
2017-03-25T01:35:11.591Z,0
2017-03-25T01:36:21.789Z,0
2017-03-25T01:37:31.446Z,0
2017-03-25T01:38:41.708Z,0
2017-03-25T01:39:51.659Z,0
2017-03-25T01:41:01.939Z,0
2017-03-25T01:42:11.523Z,0
2017-03-25T01:43:21.162Z,0
2017-03-25T01:44:30.802Z,0
2017-03-25T01:45:40.769Z,0
2017-03-25T01:46:51.074Z,0
2017-03-25T01:48:01.281Z,0
2017-03-25T01:49:11.552Z,0
2017-03-25T01:50:21.829Z,0
2017-03-25T01:51:32.100Z,0
2017-03-25T01:52:42.371Z,0
2017-03-25T01:53:52.887Z,0
2017-03-25T01:55:03.157Z,0
2017-03-25T01:56:13.112Z,0
2017-03-25T01:57:23.399Z,0
2017-03-25T01:58:33.670Z,0
2017-03-25T01:59:44.211Z,0
2017-03-25T02:00:54.161Z,0
2017-03-25T02:02:04.111Z,0
2017-03-25T02:03:14.071Z,0
2017-03-25T02:04:24.029Z,0
2017-03-25T02:05:34.230Z,0
2017-03-25T02:06:44.504Z,0
2017-03-25T02:07:54.468Z,0
2017-03-25T02:09:04.746Z,0
2017-03-25T02:10:15.009Z,0
2017-03-25T02:11:25.216Z,0
2017-03-25T02:12:34.872Z,0
2017-03-25T02:13:45.134Z,0
2017-03-25T02:14:55.398Z,0
2017-03-25T02:16:05.672Z,0
2017-03-25T02:17:15.251Z,0
2017-03-25T02:18:25.537Z,0
2017-03-25T02:19:35.491Z,0
2017-03-25T02:20:45.453Z,0
2017-03-25T02:21:55.722Z,0
2017-03-25T02:23:06.237Z,0
2017-03-25T02:24:15.571Z,0
2017-03-25T02:25:25.541Z,0
2017-03-25T02:26:35.810Z,0
2017-03-25T02:27:45.773Z,0
2017-03-25T02:28:55.705Z,0
2017-03-25T02:30:05.657Z,0
2017-03-25T02:31:15.614Z,0
2017-03-25T02:32:25.876Z,0
2017-03-25T02:33:35.561Z,0
2017-03-25T02:34:45.767Z,0
2017-03-25T02:35:55.416Z,0
2017-03-25T02:37:05.376Z,0
2017-03-25T02:38:15.336Z,0
2017-03-25T02:39:25.606Z,0
2017-03-25T02:40:35.498Z,0
2017-03-25T02:41:45.764Z,0
2017-03-25T02:42:56.031Z,0
2017-03-25T02:44:05.684Z,0
2017-03-25T02:45:15.952Z,0
2017-03-25T02:46:26.470Z,0
2017-03-25T02:47:36.473Z,0
2017-03-25T02:48:46.740Z,0
2017-03-25T02:49:56.699Z,0
2017-03-25T02:51:06.967Z,0
2017-03-25T02:52:17.230Z,0
2017-03-25T02:53:27.195Z,0
2017-03-25T02:54:37.471Z,0
2017-03-25T02:55:47.753Z,0
2017-03-25T02:56:58.030Z,0
2017-03-25T02:58:08.558Z,0
2017-03-25T02:59:18.827Z,0
2017-03-25T03:00:28.586Z,0
2017-03-25T03:01:38.849Z,0
2017-03-25T03:02:48.816Z,0
2017-03-25T03:03:59.033Z,0
2017-03-25T03:05:09.004Z,0
2017-03-25T03:06:19.289Z,0
2017-03-25T03:07:29.254Z,0
2017-03-25T03:08:39.527Z,0
2017-03-25T03:09:49.740Z,0
2017-03-25T03:11:00.006Z,0
2017-03-25T03:12:09.658Z,0
2017-03-25T03:13:19.317Z,0
2017-03-25T03:14:29.273Z,0
2017-03-25T03:15:39.482Z,0
2017-03-25T03:16:49.757Z,0
2017-03-25T03:18:00.032Z,0
2017-03-25T03:19:10.310Z,0
2017-03-25T03:20:19.955Z,0
2017-03-25T03:21:29.857Z,0
2017-03-25T03:22:40.134Z,0
2017-03-25T03:23:50.411Z,0
2017-03-25T03:25:00.694Z,0
2017-03-25T03:26:10.650Z,0
2017-03-25T03:27:20.852Z,0
2017-03-25T03:28:31.132Z,0
2017-03-25T03:29:40.477Z,0
2017-03-25T03:30:50.740Z,0
2017-03-25T03:32:00.396Z,0
2017-03-25T03:33:10.610Z,0
2017-03-25T03:34:20.890Z,0
2017-03-25T03:35:31.171Z,0
2017-03-25T03:36:41.439Z,0
2017-03-25T03:37:51.716Z,0
2017-03-25T03:39:01.944Z,0
2017-03-25T03:40:11.910Z,0
2017-03-25T03:41:21.870Z,0
2017-03-25T03:42:31.896Z,0
2017-03-25T03:43:41.855Z,0
2017-03-25T03:44:52.394Z,0
2017-03-25T03:46:02.346Z,0
2017-03-25T03:47:11.994Z,0
2017-03-25T03:48:22.276Z,0
2017-03-25T03:49:32.544Z,0
2017-03-25T03:50:43.112Z,0
2017-03-25T03:51:53.377Z,0
2017-03-25T03:53:03.332Z,0
2017-03-25T03:54:13.614Z,0
2017-03-25T03:55:23.936Z,0
2017-03-25T03:56:34.140Z,0
2017-03-25T03:57:44.415Z,0
2017-03-25T03:58:54.685Z,0
2017-03-25T04:00:04.943Z,0
2017-03-25T04:01:14.903Z,0
2017-03-25T04:02:25.423Z,0
2017-03-25T04:03:35.393Z,0
2017-03-25T04:04:45.656Z,0
2017-03-25T04:05:55.619Z,0
2017-03-25T04:07:05.889Z,0
2017-03-25T04:08:16.461Z,0
2017-03-25T04:09:26.742Z,0
2017-03-25T04:10:37.022Z,0
2017-03-25T04:11:46.981Z,0
2017-03-25T04:12:56.935Z,0
2017-03-25T04:14:07.152Z,0
2017-03-25T04:15:17.123Z,0
2017-03-25T04:16:27.076Z,0
2017-03-25T04:17:37.354Z,0
2017-03-25T04:18:47.326Z,0
2017-03-25T04:19:57.544Z,0
2017-03-25T04:21:07.823Z,0
2017-03-25T04:22:17.781Z,0
2017-03-25T04:23:27.745Z,0
2017-03-25T04:24:37.715Z,0
2017-03-25T04:25:48.233Z,0
2017-03-25T04:26:58.227Z,0
2017-03-25T04:28:08.189Z,0
2017-03-25T04:29:18.463Z,0
2017-03-25T04:30:28.466Z,0
2017-03-25T04:31:38.996Z,0
2017-03-25T04:32:49.261Z,0
2017-03-25T04:33:59.535Z,0
2017-03-25T04:35:09.813Z,0
2017-03-25T04:36:20.089Z,0
2017-03-25T04:37:30.617Z,0
2017-03-25T04:38:40.894Z,0
2017-03-25T04:39:49.923Z,0
2017-03-25T04:41:00.197Z,0
2017-03-25T04:42:10.475Z,0
2017-03-25T04:43:20.756Z,0
2017-03-25T04:44:31.085Z,0
2017-03-25T04:45:41.036Z,0
2017-03-25T04:46:51.319Z,0
2017-03-25T04:48:01.594Z,0
2017-03-25T04:49:12.170Z,0
2017-03-25T04:50:22.490Z,0
2017-03-25T04:51:32.445Z,0
2017-03-25T04:52:42.407Z,0
2017-03-25T04:53:52.367Z,0
2017-03-25T04:55:02.320Z,0
2017-03-25T04:56:12.586Z,0
2017-03-25T04:57:22.860Z,0
2017-03-25T04:58:33.134Z,0
2017-03-25T04:59:43.090Z,0
2017-03-25T05:00:53.601Z,0
2017-03-25T05:02:03.559Z,0
2017-03-25T05:03:13.828Z,0
2017-03-25T05:04:24.110Z,0
2017-03-25T05:05:34.078Z,0
2017-03-25T05:06:44.278Z,0
2017-03-25T05:07:53.930Z,0
2017-03-25T05:09:03.916Z,4
2017-03-25T05:10:14.192Z,4
2017-03-25T05:11:24.460Z,4
2017-03-25T05:12:34.357Z,0
2017-03-25T05:13:44.335Z,0
2017-03-25T05:14:54.602Z,0
2017-03-25T05:16:04.869Z,4
2017-03-25T05:17:14.826Z,4
2017-03-25T05:18:25.037Z,4
2017-03-25T05:19:35.303Z,4
2017-03-25T05:20:45.574Z,0
2017-03-25T05:21:55.534Z,4
2017-03-25T05:23:05.506Z,4
2017-03-25T05:24:16.084Z,4
2017-03-25T05:25:26.354Z,4
2017-03-25T05:26:35.995Z,4
2017-03-25T05:27:45.665Z,8
2017-03-25T05:28:55.941Z,4
2017-03-25T05:30:06.514Z,4
2017-03-25T05:31:16.777Z,4
2017-03-25T05:32:26.426Z,4
2017-03-25T05:33:36.698Z,4
2017-03-25T05:34:46.657Z,8
2017-03-25T05:35:57.184Z,8
2017-03-25T05:37:07.157Z,4
2017-03-25T05:38:17.419Z,4
2017-03-25T05:39:27.706Z,4
2017-03-25T05:40:37.404Z,8
2017-03-25T05:41:47.925Z,8
2017-03-25T05:42:58.209Z,8
2017-03-25T05:44:08.487Z,8
2017-03-25T05:45:18.442Z,4
2017-03-25T05:46:28.399Z,8
2017-03-25T05:47:38.603Z,8
2017-03-25T05:48:48.561Z,8
2017-03-25T05:49:58.522Z,8
2017-03-25T05:51:08.801Z,12
2017-03-25T05:52:18.757Z,8
2017-03-25T05:53:29.283Z,8
2017-03-25T05:54:39.568Z,8
2017-03-25T05:55:49.541Z,12
2017-03-25T05:56:59.195Z,8
2017-03-25T05:58:09.470Z,12
2017-03-25T05:59:19.686Z,12
2017-03-25T06:00:29.958Z,12
2017-03-25T06:01:39.605Z,12
2017-03-25T06:02:49.880Z,12
2017-03-25T06:03:59.539Z,16
2017-03-25T06:05:10.073Z,12
2017-03-25T06:06:20.036Z,12
2017-03-25T06:07:29.991Z,16
2017-03-25T06:08:40.278Z,16
2017-03-25T06:09:50.251Z,16
2017-03-25T06:11:00.793Z,16
2017-03-25T06:12:11.061Z,20
2017-03-25T06:13:21.340Z,16
2017-03-25T06:14:31.608Z,16
2017-03-25T06:15:41.574Z,20
2017-03-25T06:16:51.799Z,16
2017-03-25T06:18:01.457Z,20
2017-03-25T06:19:10.803Z,20
2017-03-25T06:20:20.460Z,24
2017-03-25T06:21:30.881Z,20
2017-03-25T06:22:41.457Z,20
2017-03-25T06:23:51.438Z,24
2017-03-25T06:25:01.416Z,20
2017-03-25T06:26:11.689Z,24
2017-03-25T06:27:22.100Z,24
2017-03-25T06:28:32.255Z,24
2017-03-25T06:29:42.227Z,24
2017-03-25T06:30:52.513Z,28
2017-03-25T06:32:02.478Z,24
2017-03-25T06:33:12.747Z,28
2017-03-25T06:34:22.341Z,28
2017-03-25T06:35:32.610Z,28
2017-03-25T06:36:42.568Z,28
2017-03-25T06:37:52.521Z,32
2017-03-25T06:39:02.544Z,28
2017-03-25T06:40:12.450Z,32
2017-03-25T06:41:22.103Z,32
2017-03-25T06:42:31.770Z,32
2017-03-25T06:43:42.048Z,32
2017-03-25T06:44:52.323Z,36
2017-03-25T06:46:02.581Z,36
2017-03-25T06:47:12.866Z,36
2017-03-25T06:48:22.837Z,40
2017-03-25T06:49:32.816Z,36
2017-03-25T06:50:43.102Z,36
2017-03-25T06:51:53.059Z,32
2017-03-25T06:53:03.016Z,32
2017-03-25T06:54:12.665Z,36
2017-03-25T06:55:22.309Z,36
2017-03-25T06:56:32.595Z,36
2017-03-25T06:57:42.873Z,36
2017-03-25T06:58:52.838Z,36
2017-03-25T07:00:02.177Z,40
2017-03-25T07:01:12.141Z,36
2017-03-25T07:02:22.104Z,36
2017-03-25T07:03:32.315Z,36
2017-03-25T07:04:43.040Z,40
2017-03-25T07:05:53.336Z,40
2017-03-25T07:07:03.291Z,40
2017-03-25T07:08:13.257Z,40
2017-03-25T07:09:23.476Z,40
2017-03-25T07:10:33.141Z,36
2017-03-25T07:11:43.091Z,40
2017-03-25T07:12:53.049Z,44
2017-03-25T07:14:03.322Z,44
2017-03-25T07:15:13.854Z,44
2017-03-25T07:16:23.806Z,44
2017-03-25T07:17:33.453Z,48
2017-03-25T07:18:43.429Z,48
2017-03-25T07:19:53.597Z,48
2017-03-25T07:21:04.131Z,52
2017-03-25T07:22:14.407Z,56
2017-03-25T07:23:24.695Z,64
2017-03-25T07:24:34.346Z,56
2017-03-25T07:25:43.995Z,64
2017-03-25T07:26:54.511Z,64
2017-03-25T07:28:04.795Z,64
2017-03-25T07:29:15.077Z,64
2017-03-25T07:30:25.043Z,60
2017-03-25T07:31:35.312Z,60
2017-03-25T07:32:45.214Z,60
2017-03-25T07:33:55.188Z,64
2017-03-25T07:35:05.450Z,60
2017-03-25T07:36:15.416Z,60
2017-03-25T07:37:25.378Z,56
2017-03-25T07:38:35.915Z,56
2017-03-25T07:39:45.880Z,52
2017-03-25T07:40:56.159Z,52
2017-03-25T07:42:06.122Z,48
2017-03-25T07:43:15.779Z,48
2017-03-25T07:44:25.997Z,48
2017-03-25T07:45:35.997Z,44
2017-03-25T07:46:45.322Z,48
2017-03-25T07:47:54.979Z,44
2017-03-25T07:49:04.948Z,44
2017-03-25T07:50:15.487Z,48
2017-03-25T07:51:25.757Z,44
2017-03-25T07:52:35.734Z,48
2017-03-25T07:53:46.015Z,48
2017-03-25T07:54:56.306Z,44
2017-03-25T07:56:06.525Z,44
2017-03-25T07:57:16.821Z,48
2017-03-25T07:58:26.796Z,44
2017-03-25T07:59:36.772Z,48
2017-03-25T08:00:47.038Z,52
2017-03-25T08:01:57.577Z,52
2017-03-25T08:03:07.854Z,52
2017-03-25T08:04:18.149Z,52
2017-03-25T08:05:28.421Z,52
2017-03-25T08:06:38.070Z,52
2017-03-25T08:07:48.676Z,56
2017-03-25T08:08:58.653Z,56
2017-03-25T08:10:08.606Z,56
2017-03-25T08:11:18.881Z,60
2017-03-25T08:12:28.545Z,56
2017-03-25T08:13:38.752Z,56
2017-03-25T08:14:48.723Z,52
2017-03-25T08:15:58.384Z,52
2017-03-25T08:17:08.670Z,52
2017-03-25T08:18:18.643Z,48
2017-03-25T08:19:28.603Z,52
2017-03-25T08:20:38.882Z,48
2017-03-25T08:21:48.856Z,48
2017-03-25T08:22:58.506Z,48
2017-03-25T08:24:08.780Z,44
2017-03-25T08:25:19.318Z,48
2017-03-25T08:26:29.598Z,44
2017-03-25T08:27:39.874Z,44
2017-03-25T08:28:49.850Z,48
2017-03-25T08:30:00.142Z,48
2017-03-25T08:31:10.398Z,52
2017-03-25T08:32:20.375Z,52
2017-03-25T08:33:30.653Z,52
2017-03-25T08:34:40.629Z,48
2017-03-25T08:35:50.902Z,52
2017-03-25T08:37:01.161Z,52
2017-03-25T08:38:11.430Z,48
2017-03-25T08:39:21.397Z,48
2017-03-25T08:40:31.041Z,48
2017-03-25T08:41:41.012Z,48
2017-03-25T08:42:51.547Z,44
2017-03-25T08:44:01.867Z,48
2017-03-25T08:45:11.838Z,48
2017-03-25T08:46:21.800Z,48
2017-03-25T08:47:31.756Z,48
2017-03-25T08:48:41.675Z,56
2017-03-25T08:49:51.966Z,52
2017-03-25T08:51:01.946Z,52
2017-03-25T08:52:11.598Z,52
2017-03-25T08:53:21.574Z,52
2017-03-25T08:54:32.101Z,48
2017-03-25T08:55:42.081Z,48
2017-03-25T08:56:52.354Z,48
2017-03-25T08:58:02.011Z,48
2017-03-25T08:59:12.285Z,48
2017-03-25T09:00:22.813Z,48
2017-03-25T09:01:32.475Z,48
2017-03-25T09:02:42.754Z,48
2017-03-25T09:03:53.031Z,52
2017-03-25T09:05:03.318Z,52
2017-03-25T09:06:13.525Z,52
2017-03-25T09:07:22.865Z,52
2017-03-25T09:08:32.849Z,56
2017-03-25T09:09:43.118Z,52
2017-03-25T09:10:52.765Z,52
2017-03-25T09:12:03.299Z,56
2017-03-25T09:13:13.262Z,52
2017-03-25T09:14:22.925Z,56
2017-03-25T09:15:32.592Z,56
2017-03-25T09:16:42.563Z,56
2017-03-25T09:17:53.085Z,60
2017-03-25T09:19:03.374Z,60
2017-03-25T09:20:13.660Z,60
2017-03-25T09:21:23.662Z,60
2017-03-25T09:22:33.944Z,60
2017-03-25T09:23:44.531Z,60
2017-03-25T09:24:54.501Z,60
2017-03-25T09:26:04.790Z,64
2017-03-25T09:27:15.058Z,60
2017-03-25T09:28:25.339Z,64
2017-03-25T09:29:35.883Z,64
2017-03-25T09:30:45.856Z,64
2017-03-25T09:31:55.813Z,64
2017-03-25T09:33:05.788Z,60
2017-03-25T09:34:16.067Z,60
2017-03-25T09:35:26.285Z,60
2017-03-25T09:36:36.254Z,64
2017-03-25T09:37:45.905Z,64
2017-03-25T09:38:56.184Z,68
2017-03-25T09:40:06.148Z,68
2017-03-25T09:41:16.362Z,72
2017-03-25T09:42:26.017Z,72
2017-03-25T09:43:36.306Z,72
2017-03-25T09:44:46.587Z,76
2017-03-25T09:45:56.878Z,72
2017-03-25T09:47:07.503Z,72
2017-03-25T09:48:17.164Z,72
2017-03-25T09:49:27.146Z,72
2017-03-25T09:50:36.803Z,72
2017-03-25T09:51:47.089Z,76
2017-03-25T09:52:57.050Z,72
2017-03-25T09:54:07.030Z,72
2017-03-25T09:55:17.009Z,72
2017-03-25T09:56:27.290Z,68
2017-03-25T09:57:37.582Z,72
2017-03-25T09:58:48.172Z,72
2017-03-25T09:59:57.830Z,76
2017-03-25T10:01:08.111Z,80
2017-03-25T10:02:18.435Z,80
2017-03-25T10:03:28.461Z,76
2017-03-25T10:04:38.737Z,72
2017-03-25T10:05:49.015Z,84
2017-03-25T10:06:58.670Z,88
2017-03-25T10:08:08.938Z,92
2017-03-25T10:09:19.219Z,84
2017-03-25T10:10:29.753Z,84
2017-03-25T10:11:39.708Z,88
2017-03-25T10:12:49.999Z,88
2017-03-25T10:13:59.969Z,88
2017-03-25T10:15:09.929Z,80
2017-03-25T10:16:20.141Z,76
2017-03-25T10:17:30.426Z,88
2017-03-25T10:18:40.715Z,88
2017-03-25T10:19:51.064Z,88
2017-03-25T10:21:01.349Z,92
2017-03-25T10:22:11.924Z,96
2017-03-25T10:23:21.578Z,96
2017-03-25T10:24:31.854Z,92
2017-03-25T10:25:41.815Z,96
2017-03-25T10:26:52.088Z,96
2017-03-25T10:28:02.624Z,92
2017-03-25T10:29:12.897Z,96
2017-03-25T10:30:23.162Z,92
2017-03-25T10:31:33.144Z,88
2017-03-25T10:32:42.797Z,84
2017-03-25T10:33:53.084Z,88
2017-03-25T10:35:03.056Z,92
2017-03-25T10:36:13.027Z,96
2017-03-25T10:37:23.306Z,96
2017-03-25T10:38:33.586Z,96
2017-03-25T10:39:44.102Z,92
2017-03-25T10:40:53.754Z,92
2017-03-25T10:42:03.711Z,96
2017-03-25T10:43:14.035Z,100
2017-03-25T10:44:24.309Z,100
2017-03-25T10:45:34.591Z,92
2017-03-25T10:46:44.550Z,96
2017-03-25T10:47:54.207Z,96
2017-03-25T10:49:04.485Z,96
2017-03-25T10:50:13.829Z,96
2017-03-25T10:51:24.047Z,92
2017-03-25T10:52:33.699Z,92
2017-03-25T10:53:43.679Z,96
2017-03-25T10:54:53.659Z,96
2017-03-25T10:56:03.618Z,96
2017-03-25T10:57:13.840Z,92
2017-03-25T10:58:23.810Z,92
2017-03-25T10:59:33.781Z,88
2017-03-25T11:00:44.059Z,84
2017-03-25T11:01:54.019Z,92
2017-03-25T11:03:04.545Z,92
2017-03-25T11:04:14.524Z,92
2017-03-25T11:05:24.180Z,92
2017-03-25T11:06:34.456Z,92
2017-03-25T11:07:44.428Z,92
2017-03-25T11:08:54.341Z,92
2017-03-25T11:10:04.622Z,92
2017-03-25T11:11:14.269Z,92
2017-03-25T11:12:24.239Z,88
2017-03-25T11:13:34.529Z,88
2017-03-25T11:14:45.054Z,84
2017-03-25T11:15:55.335Z,84
2017-03-25T11:17:04.994Z,88
2017-03-25T11:18:15.257Z,84
2017-03-25T11:19:25.543Z,84
2017-03-25T11:20:35.759Z,84
2017-03-25T11:21:46.031Z,84
2017-03-25T11:22:56.000Z,84
2017-03-25T11:24:06.285Z,84
2017-03-25T11:25:16.582Z,84
2017-03-25T11:26:27.180Z,84
2017-03-25T11:27:37.501Z,88
2017-03-25T11:28:47.781Z,84
2017-03-25T11:29:58.062Z,84
2017-03-25T11:31:08.025Z,80
2017-03-25T11:32:17.611Z,80
2017-03-25T11:33:27.583Z,76
2017-03-25T11:34:37.867Z,76
2017-03-25T11:35:48.162Z,68
2017-03-25T11:36:58.451Z,68
2017-03-25T11:38:09.056Z,72
2017-03-25T11:39:18.708Z,68
2017-03-25T11:40:28.673Z,72
2017-03-25T11:41:38.646Z,72
2017-03-25T11:42:48.613Z,72
2017-03-25T11:43:59.156Z,72
2017-03-25T11:45:09.429Z,72
2017-03-25T11:46:19.708Z,72
2017-03-25T11:47:29.984Z,76
2017-03-25T11:48:40.264Z,72
2017-03-25T11:49:50.192Z,72
2017-03-25T11:51:00.155Z,72
2017-03-25T11:52:09.505Z,76
2017-03-25T11:53:19.787Z,76
2017-03-25T11:54:30.077Z,76
2017-03-25T11:55:40.054Z,72
2017-03-25T11:56:50.334Z,76
2017-03-25T11:58:00.623Z,72
2017-03-25T11:59:10.968Z,72
2017-03-25T12:00:20.934Z,72
2017-03-25T12:01:30.851Z,72
2017-03-25T12:02:41.152Z,64
2017-03-25T12:03:51.439Z,68
2017-03-25T12:05:01.104Z,72
2017-03-25T12:06:11.072Z,76
2017-03-25T12:07:21.601Z,80
2017-03-25T12:08:31.568Z,76
2017-03-25T12:09:41.223Z,76
2017-03-25T12:10:51.194Z,76
2017-03-25T12:12:00.856Z,72
2017-03-25T12:13:11.074Z,76
2017-03-25T12:14:20.420Z,72
2017-03-25T12:15:30.694Z,72
2017-03-25T12:16:40.652Z,72
2017-03-25T12:17:50.625Z,68
2017-03-25T12:19:00.839Z,72
2017-03-25T12:20:10.491Z,68
2017-03-25T12:21:20.458Z,72
2017-03-25T12:22:30.437Z,76
2017-03-25T12:23:40.411Z,72
2017-03-25T12:24:50.621Z,68
2017-03-25T12:26:00.907Z,72
2017-03-25T12:27:11.173Z,72
2017-03-25T12:28:20.820Z,72
2017-03-25T12:29:30.480Z,76
2017-03-25T12:30:40.699Z,76
2017-03-25T12:31:50.977Z,76
2017-03-25T12:33:01.262Z,72
2017-03-25T12:34:11.228Z,56
2017-03-25T12:35:21.192Z,56
2017-03-25T12:36:31.459Z,52
2017-03-25T12:37:41.433Z,52
2017-03-25T12:38:51.083Z,52
2017-03-25T12:40:01.114Z,56
2017-03-25T12:41:11.403Z,56
2017-03-25T12:42:21.618Z,60
2017-03-25T12:43:31.902Z,64
2017-03-25T12:44:42.184Z,64
2017-03-25T12:45:52.458Z,68
2017-03-25T12:47:02.103Z,68
2017-03-25T12:48:12.635Z,64
2017-03-25T12:49:22.958Z,64
2017-03-25T12:50:32.918Z,64
2017-03-25T12:51:43.197Z,64
2017-03-25T12:52:53.482Z,64
2017-03-25T12:54:03.713Z,72
2017-03-25T12:55:13.681Z,68
2017-03-25T12:56:23.977Z,68
2017-03-25T12:57:34.249Z,72
2017-03-25T12:58:44.540Z,76
2017-03-25T12:59:55.079Z,72
2017-03-25T13:01:05.368Z,72
2017-03-25T13:02:15.019Z,72
2017-03-25T13:03:25.349Z,64
2017-03-25T13:04:35.635Z,68
2017-03-25T13:05:45.635Z,68
2017-03-25T13:06:55.635Z,64
2017-03-25T13:08:05.296Z,64
2017-03-25T13:09:14.950Z,60
2017-03-25T13:10:24.971Z,60
2017-03-25T13:11:35.548Z,60
2017-03-25T13:12:45.516Z,64
2017-03-25T13:13:55.809Z,60
2017-03-25T13:15:05.483Z,60
2017-03-25T13:16:15.439Z,56
2017-03-25T13:17:25.089Z,60
2017-03-25T13:18:35.060Z,60
2017-03-25T13:19:45.383Z,60
2017-03-25T13:20:55.383Z,64
2017-03-25T13:22:05.402Z,60
2017-03-25T13:23:15.945Z,60
2017-03-25T13:24:26.240Z,56
2017-03-25T13:25:36.214Z,60
2017-03-25T13:26:46.177Z,56
2017-03-25T13:27:56.154Z,56
2017-03-25T13:29:06.067Z,56
2017-03-25T13:30:15.716Z,52
2017-03-25T13:31:25.394Z,52
2017-03-25T13:32:35.357Z,52
2017-03-25T13:33:45.649Z,52
2017-03-25T13:34:55.915Z,52
2017-03-25T13:36:05.884Z,52
2017-03-25T13:37:16.178Z,56
2017-03-25T13:38:26.459Z,56
2017-03-25T13:39:36.419Z,56
2017-03-25T13:40:46.942Z,56
2017-03-25T13:41:56.909Z,56
2017-03-25T13:43:07.191Z,56
2017-03-25T13:44:17.471Z,52
2017-03-25T13:45:27.750Z,52
2017-03-25T13:46:38.274Z,52
2017-03-25T13:47:48.242Z,56
2017-03-25T13:48:58.221Z,56
2017-03-25T13:50:08.548Z,52
2017-03-25T13:51:18.823Z,52
2017-03-25T13:52:29.091Z,52
2017-03-25T13:53:39.063Z,52
2017-03-25T13:54:49.345Z,48
2017-03-25T13:55:59.302Z,48
2017-03-25T13:57:08.964Z,48
2017-03-25T13:58:19.236Z,52
2017-03-25T13:59:29.199Z,52
2017-03-25T14:00:38.546Z,52
2017-03-25T14:01:48.879Z,52
2017-03-25T14:02:58.839Z,52
2017-03-25T14:04:09.069Z,48
2017-03-25T14:05:19.094Z,52
2017-03-25T14:06:28.757Z,52
2017-03-25T14:07:39.045Z,48
2017-03-25T14:08:49.011Z,48
2017-03-25T14:09:59.248Z,52
2017-03-25T14:11:09.530Z,52
2017-03-25T14:12:19.806Z,52
2017-03-25T14:13:30.100Z,48
2017-03-25T14:14:40.063Z,48
2017-03-25T14:15:50.597Z,48
2017-03-25T14:17:00.867Z,48
2017-03-25T14:18:10.526Z,48
2017-03-25T14:19:20.797Z,44
2017-03-25T14:20:30.765Z,48
2017-03-25T14:21:41.334Z,44
2017-03-25T14:22:51.296Z,44
2017-03-25T14:24:01.583Z,48
2017-03-25T14:25:11.873Z,44
2017-03-25T14:26:22.149Z,44
2017-03-25T14:27:32.673Z,44
2017-03-25T14:28:42.945Z,48
2017-03-25T14:29:52.932Z,44
2017-03-25T14:31:02.900Z,44
2017-03-25T14:32:13.184Z,44
2017-03-25T14:33:23.810Z,44
2017-03-25T14:34:33.473Z,44
2017-03-25T14:35:43.443Z,44
2017-03-25T14:36:52.774Z,44
2017-03-25T14:38:02.794Z,40
2017-03-25T14:39:12.381Z,44
2017-03-25T14:40:22.336Z,40
2017-03-25T14:41:31.987Z,44
2017-03-25T14:42:42.259Z,40
2017-03-25T14:43:52.227Z,40
2017-03-25T14:45:02.453Z,40
2017-03-25T14:46:12.423Z,40
2017-03-25T14:47:22.698Z,40
2017-03-25T14:48:32.970Z,40
2017-03-25T14:49:42.938Z,40
2017-03-25T14:50:53.534Z,40
2017-03-25T14:52:03.814Z,36
2017-03-25T14:53:13.804Z,36
2017-03-25T14:54:24.088Z,36
2017-03-25T14:55:34.367Z,40
2017-03-25T14:56:44.644Z,36
2017-03-25T14:57:54.935Z,36
2017-03-25T14:59:04.903Z,40
2017-03-25T15:00:14.868Z,36
2017-03-25T15:01:24.520Z,36
2017-03-25T15:02:35.090Z,40
2017-03-25T15:03:45.384Z,40
2017-03-25T15:04:55.041Z,36
2017-03-25T15:06:05.001Z,40
2017-03-25T15:07:14.991Z,36
2017-03-25T15:08:25.527Z,36
2017-03-25T15:09:35.798Z,32
2017-03-25T15:10:46.071Z,36
2017-03-25T15:11:55.742Z,32
2017-03-25T15:13:05.709Z,36
2017-03-25T15:14:16.301Z,36
2017-03-25T15:15:26.274Z,36
2017-03-25T15:16:36.384Z,36
2017-03-25T15:17:46.676Z,36
2017-03-25T15:18:56.643Z,32
2017-03-25T15:20:06.559Z,32
2017-03-25T15:21:16.534Z,36
2017-03-25T15:22:26.818Z,32
2017-03-25T15:23:37.105Z,32
2017-03-25T15:24:47.396Z,32
2017-03-25T15:25:57.972Z,32
2017-03-25T15:27:08.269Z,32
2017-03-25T15:28:18.556Z,32
2017-03-25T15:29:28.537Z,32
2017-03-25T15:30:38.491Z,32
2017-03-25T15:31:48.132Z,32
2017-03-25T15:32:58.414Z,32
2017-03-25T15:34:08.077Z,28
2017-03-25T15:35:18.356Z,28
2017-03-25T15:36:28.332Z,32
2017-03-25T15:37:38.904Z,32
2017-03-25T15:38:49.188Z,32
2017-03-25T15:39:58.792Z,28
2017-03-25T15:41:08.755Z,28
2017-03-25T15:42:19.045Z,28
2017-03-25T15:43:28.950Z,28
2017-03-25T15:44:38.612Z,28
2017-03-25T15:45:48.626Z,28
2017-03-25T15:46:58.895Z,28
2017-03-25T15:48:08.862Z,24
2017-03-25T15:49:19.080Z,24
2017-03-25T15:50:29.047Z,28
2017-03-25T15:51:39.060Z,28
2017-03-25T15:52:49.022Z,28
2017-03-25T15:53:59.294Z,24
2017-03-25T15:55:09.563Z,24
2017-03-25T15:56:19.840Z,24
2017-03-25T15:57:30.122Z,24
2017-03-25T15:58:39.470Z,24
2017-03-25T15:59:49.589Z,24
2017-03-25T16:01:00.121Z,24
2017-03-25T16:02:10.394Z,24
2017-03-25T16:03:20.677Z,24
2017-03-25T16:04:30.633Z,20
2017-03-25T16:05:40.598Z,20
2017-03-25T16:06:50.187Z,24
2017-03-25T16:08:00.162Z,20
2017-03-25T16:09:09.818Z,20
2017-03-25T16:10:20.092Z,16
2017-03-25T16:11:30.050Z,20
2017-03-25T16:12:40.630Z,20
2017-03-25T16:13:50.961Z,16
2017-03-25T16:15:01.261Z,20
2017-03-25T16:16:10.922Z,20
2017-03-25T16:17:20.899Z,16
2017-03-25T16:18:31.435Z,16
2017-03-25T16:19:41.713Z,16
2017-03-25T16:20:51.687Z,16
2017-03-25T16:22:01.990Z,16
2017-03-25T16:23:11.967Z,16
2017-03-25T16:24:21.880Z,16
2017-03-25T16:25:31.861Z,16
2017-03-25T16:26:42.141Z,12
2017-03-25T16:27:52.108Z,12
2017-03-25T16:29:02.071Z,16
2017-03-25T16:30:11.997Z,12
2017-03-25T16:31:21.964Z,12
2017-03-25T16:32:31.607Z,12
2017-03-25T16:33:41.262Z,12
2017-03-25T16:34:51.226Z,12
2017-03-25T16:36:01.755Z,12
2017-03-25T16:37:12.029Z,8
2017-03-25T16:38:21.999Z,8
2017-03-25T16:39:32.291Z,12
2017-03-25T16:40:42.246Z,12
2017-03-25T16:41:52.474Z,8
2017-03-25T16:43:02.438Z,8
2017-03-25T16:44:11.794Z,8
2017-03-25T16:45:22.076Z,8
2017-03-25T16:46:32.052Z,8
2017-03-25T16:47:42.266Z,8
2017-03-25T16:48:52.532Z,8
2017-03-25T16:50:02.490Z,4
2017-03-25T16:51:12.459Z,8
2017-03-25T16:52:22.755Z,8
2017-03-25T16:53:32.989Z,4